Time;durP1;ratioP1;P1;durP2;ratioP2;P2;SDS_P1;SDS_P2;PMS_P1;PMS_P2;Temp;Humidity;BMP_temperature;BMP_pressure;BME280_temperature;BME280_humidity;BME280_pressure;Samples;Min_cycle;Max_cycle;Signal;HPM_P1;HPM_P2
2023/03/14 00:02:39;;;;;;;13.70;1.90;;;;;;;12.70;85.02;98150.63;8370712;28;20167;-54
2023/03/14 00:06:39;;;;;;;6.75;1.42;;;;;;;12.71;84.87;98171.25;8375137;28;20032;-58
2023/03/14 00:10:40;;;;;;;8.80;1.70;;;;;;;12.61;84.74;98176.28;8376768;28;20127;-58
2023/03/14 00:14:42;;;;;;;11.35;1.50;;;;;;;12.68;84.55;98201.50;8398133;28;20489;-57
2023/03/14 00:18:42;;;;;;;10.02;1.98;;;;;;;12.76;83.95;98220.28;8375232;28;20036;-58
2023/03/14 00:22:43;;;;;;;4.30;1.27;;;;;;;12.83;83.73;98237.34;8367356;28;20146;-58
2023/03/14 00:26:43;;;;;;;9.95;1.20;;;;;;;12.78;84.22;98251.53;8373976;28;20116;-58
2023/03/14 00:30:44;;;;;;;12.20;1.30;;;;;;;12.73;85.12;98255.94;8361664;28;20055;-58
2023/03/14 00:34:44;;;;;;;6.55;1.45;;;;;;;12.82;84.07;98230.28;8371132;28;20323;-58
2023/03/14 00:38:46;;;;;;;8.23;1.40;;;;;;;12.95;83.59;98224.81;8374743;28;20072;-58
2023/03/14 00:42:47;;;;;;;4.50;1.23;;;;;;;13.02;83.45;98236.56;8374609;28;20044;-57
2023/03/14 00:46:47;;;;;;;9.85;1.17;;;;;;;13.14;82.84;98221.25;8374416;28;20123;-57
2023/03/14 00:50:48;;;;;;;6.47;1.25;;;;;;;12.99;83.90;98234.22;8374062;28;20041;-56
2023/03/14 00:54:49;;;;;;;8.13;1.42;;;;;;;13.03;83.89;98249.06;8389264;28;20036;-58
2023/03/14 00:58:53;;;;;;;10.02;1.88;;;;;;;12.99;87.53;98264.06;8421701;28;20059;-56
2023/03/14 01:02:54;;;;;;;7.50;1.52;;;;;;;12.52;94.43;98294.09;8372045;28;20166;-51
2023/03/14 01:06:54;;;;;;;9.63;2.05;;;;;;;11.95;100.00;98274.81;8372000;28;20527;-53
2023/03/14 01:10:55;;;;;;;7.55;1.15;;;;;;;11.75;100.00;98267.44;8373143;28;20506;-52
2023/03/14 01:14:55;;;;;;;7.28;1.50;;;;;;;11.66;100.00;98254.31;8373302;28;20048;-51
2023/03/14 01:18:56;;;;;;;7.65;0.80;;;;;;;11.52;100.00;98242.56;8351704;28;20103;-52
2023/03/14 01:22:56;;;;;;;8.55;1.00;;;;;;;11.48;100.00;98241.31;8350612;28;20044;-52
2023/03/14 01:26:57;;;;;;;3.22;1.17;;;;;;;11.41;100.00;98217.97;8340479;28;20060;-52
2023/03/14 01:31:03;;;;;;;7.18;0.90;;;;;;;11.36;100.00;98213.16;8341361;28;20511;-53
2023/03/14 01:35:04;;;;;;;4.53;0.85;;;;;;;11.34;100.00;98226.03;8368661;28;20040;-52
2023/03/14 01:39:05;;;;;;;3.20;0.98;;;;;;;11.27;100.00;98217.09;8373167;28;20046;-52
2023/03/14 01:43:15;;;;;;;4.95;0.70;;;;;;;11.26;100.00;98196.47;8373527;28;20572;-53
2023/03/14 01:47:16;;;;;;;3.92;0.65;;;;;;;11.37;100.00;98195.88;8372474;28;20414;-52
2023/03/14 01:51:25;;;;;;;4.40;0.60;;;;;;;11.27;100.00;98195.44;8373650;28;20056;-54
2023/03/14 01:55:25;;;;;;;6.72;0.82;;;;;;;11.25;100.00;98181.28;8377956;28;20068;-53
2023/03/14 01:59:29;;;;;;;5.00;0.90;;;;;;;11.32;99.90;98184.84;8389462;28;20502;-54
2023/03/14 02:03:34;;;;;;;4.17;0.80;;;;;;;11.31;100.00;98185.03;8379934;28;20036;-54
2023/03/14 02:07:43;;;;;;;2.22;0.60;;;;;;;11.25;100.00;98189.38;8378631;28;20279;-54
2023/03/14 02:11:51;;;;;;;4.40;0.70;;;;;;;11.16;100.00;98187.91;8379701;28;20507;-53
2023/03/14 02:16:11;;;;;;;1.85;0.43;;;;;;;11.10;100.00;98182.47;8379076;28;20037;-54
2023/03/14 02:21:02;;;;;;;4.88;0.80;;;;;;;11.07;100.00;98191.81;8379057;28;20409;-53
2023/03/14 02:25:15;;;;;;;1.95;0.50;;;;;;;10.94;100.00;98199.84;8378870;28;20033;-57
2023/03/14 02:29:17;;;;;;;4.35;0.50;;;;;;;10.82;100.00;98184.38;8378676;28;20040;-56
2023/03/14 02:33:20;;;;;;;2.45;0.60;;;;;;;10.67;100.00;98178.28;8379077;28;20032;-57
2023/03/14 02:37:24;;;;;;;5.47;0.77;;;;;;;10.52;100.00;98172.97;8378436;28;20040;-57
2023/03/14 02:41:25;;;;;;;3.55;0.50;;;;;;;10.45;100.00;98155.88;8382788;28;20043;-54
2023/03/14 02:45:39;;;;;;;3.05;0.60;;;;;;;10.41;100.00;98170.81;8353738;28;20037;-54
2023/03/14 02:49:39;;;;;;;5.60;0.70;;;;;;;10.46;100.00;98160.25;8344221;28;20442;-54
2023/03/14 02:53:41;;;;;;;5.07;0.73;;;;;;;10.59;100.00;98149.56;8345101;28;20138;-54
2023/03/14 02:57:45;;;;;;;6.10;0.98;;;;;;;10.75;100.00;98135.72;8344911;28;20041;-53
2023/03/14 03:01:46;;;;;;;4.45;1.00;;;;;;;10.98;100.00;98135.41;8368027;28;20495;-54
2023/03/14 03:05:50;;;;;;;5.70;0.98;;;;;;;11.08;100.00;98131.31;8377316;28;20491;-55
2023/03/14 03:09:51;;;;;;;9.43;1.63;;;;;;;11.17;100.00;98130.09;8377980;28;20073;-54
2023/03/14 03:13:51;;;;;;;7.88;1.23;;;;;;;11.24;99.74;98130.94;8377451;28;20044;-52
2023/03/14 03:17:52;;;;;;;6.18;1.55;;;;;;;11.32;98.75;98132.63;8375556;28;20048;-55
2023/03/14 03:21:52;;;;;;;7.35;1.30;;;;;;;11.29;99.28;98112.22;8376926;28;20537;-54
2023/03/14 03:25:52;;;;;;;8.60;1.52;;;;;;;11.24;99.94;98108.47;8367632;28;20037;-54
2023/03/14 03:29:53;;;;;;;10.45;1.70;;;;;;;11.22;100.00;98111.38;8373855;28;20041;-54
2023/03/14 03:33:54;;;;;;;9.95;1.73;;;;;;;11.36;99.59;98120.34;8375752;28;20028;-57
2023/03/14 03:37:54;;;;;;;5.38;1.20;;;;;;;11.51;97.94;98121.88;8375547;28;20033;-57
2023/03/14 03:41:56;;;;;;;8.20;1.50;;;;;;;11.73;96.07;98125.25;8373599;28;20029;-57
2023/03/14 03:45:57;;;;;;;4.88;1.08;;;;;;;11.78;95.94;98118.16;8375276;28;20048;-57
2023/03/14 03:49:58;;;;;;;7.18;1.05;;;;;;;11.74;96.79;98111.50;8374643;28;20044;-57
2023/03/14 03:53:58;;;;;;;4.88;1.15;;;;;;;11.65;99.30;98118.16;8356185;28;20404;-58
2023/03/14 03:58:06;;;;;;;4.95;0.60;;;;;;;11.54;100.00;98121.47;8375700;28;20052;-58
2023/03/14 04:02:07;;;;;;;8.25;0.80;;;;;;;11.41;100.00;98105.19;8365553;28;20036;-57
2023/03/14 04:06:11;;;;;;;8.57;1.17;;;;;;;11.30;100.00;98102.25;8376009;28;20063;-58
2023/03/14 04:10:13;;;;;;;3.53;0.68;;;;;;;11.19;100.00;98106.38;8375367;28;20047;-57
2023/03/14 04:14:21;;;;;;;1.15;0.32;;;;;;;11.17;100.00;98105.75;8364063;28;20037;-57
2023/03/14 04:18:25;;;;;;;1.35;0.40;;;;;;;11.17;100.00;98102.22;8374602;28;20537;-57
2023/03/14 04:22:26;;;;;;;2.75;0.50;;;;;;;11.23;100.00;98110.31;8373864;28;20495;-57
2023/03/14 04:26:27;;;;;;;2.15;0.45;;;;;;;11.21;100.00;98098.06;8374667;28;20496;-58
2023/03/14 04:30:28;;;;;;;1.45;0.35;;;;;;;11.19;100.00;98083.91;8375608;28;20523;-58
2023/03/14 04:34:36;;;;;;;1.83;0.40;;;;;;;11.10;100.00;98067.03;8373365;28;20048;-59
2023/03/14 04:38:36;;;;;;;2.40;0.40;;;;;;;11.19;100.00;98079.31;8374977;28;20052;-59
2023/03/14 04:42:38;;;;;;;0.98;0.32;;;;;;;11.13;100.00;98080.13;8373870;28;20139;-58
2023/03/14 04:46:39;;;;;;;0.93;0.30;;;;;;;11.15;100.00;98067.25;8370621;28;20032;-58
2023/03/14 04:50:41;;;;;;;1.70;0.20;;;;;;;11.16;100.00;98077.03;8374390;28;20680;-58
2023/03/14 04:54:42;;;;;;;1.35;0.30;;;;;;;11.15;100.00;98071.81;8374388;28;20064;-58
2023/03/14 04:58:44;;;;;;;3.70;0.40;;;;;;;11.21;100.00;98058.34;8374928;28;20076;-57
2023/03/14 05:02:45;;;;;;;0.65;0.30;;;;;;;11.29;100.00;98052.72;8371055;28;20148;-57
2023/03/14 05:07:05;;;;;;;1.00;0.32;;;;;;;11.29;100.00;98055.41;8352746;28;20040;-57
2023/03/14 05:11:16;;;;;;;0.98;0.30;;;;;;;11.42;98.08;98046.50;8368562;28;20534;-57
2023/03/14 05:15:28;;;;;;;0.85;0.20;;;;;;;11.48;96.49;98041.13;8361103;28;20518;-57
2023/03/14 05:19:41;;;;;;;0.10;0.10;;;;;;;11.44;97.18;98033.63;8363650;28;20048;-57
2023/03/14 05:23:49;;;;;;;1.02;0.20;;;;;;;11.46;97.18;98036.94;8374224;28;20041;-57
2023/03/14 05:28:06;;;;;;;0.52;0.10;;;;;;;11.45;97.35;98030.72;8372153;28;20047;-57
2023/03/14 05:32:27;;;;;;;0.20;0.20;;;;;;;11.47;97.41;98042.13;8402861;28;20336;-57
2023/03/14 05:36:38;;;;;;;0.10;0.10;;;;;;;11.39;98.63;98041.50;8367415;28;20044;-58
2023/03/14 05:40:49;;;;;;;0.35;0.10;;;;;;;11.36;99.92;98042.75;8386449;28;20037;-57
2023/03/14 05:45:09;;;;;;;0.45;0.20;;;;;;;11.36;100.00;98031.94;8391629;28;20041;-57
2023/03/14 05:49:30;;;;;;;10.98;1.00;;;;;;;11.22;100.00;98027.53;8384979;28;20075;-58
2023/03/14 05:53:50;;;;;;;10.82;1.55;;;;;;;11.18;100.00;98031.69;8364078;28;20033;-57
2023/03/14 05:58:07;;;;;;;15.30;3.15;;;;;;;11.21;100.00;98025.03;8388495;28;20064;-58
2023/03/14 06:02:18;;;;;;;13.75;2.70;;;;;;;11.24;100.00;98020.06;8392168;28;20502;-58
2023/03/14 06:06:28;;;;;;;20.08;3.65;;;;;;;11.22;100.00;98014.00;8392383;28;20036;-59
2023/03/14 06:10:29;;;;;;;12.30;2.90;;;;;;;11.26;100.00;98011.75;8392022;28;20291;-58
2023/03/14 06:14:31;;;;;;;13.65;1.95;;;;;;;11.27;100.00;98000.72;8391926;28;20119;-59
2023/03/14 06:18:31;;;;;;;12.15;2.78;;;;;;;11.28;100.00;98010.50;8392219;28;20052;-58
2023/03/14 06:22:32;;;;;;;13.13;3.28;;;;;;;11.31;100.00;98012.78;8390002;28;20422;-58
2023/03/14 06:26:33;;;;;;;1.55;0.45;;;;;;;11.48;98.91;98018.63;8373495;28;20041;-60
2023/03/14 06:30:34;;;;;;;13.77;3.38;;;;;;;11.51;98.58;98012.81;8373101;28;20052;-60
2023/03/14 06:34:34;;;;;;;8.73;3.42;;;;;;;11.44;99.26;98012.78;8385467;28;20044;-60
2023/03/14 06:38:35;;;;;;;1.98;0.60;;;;;;;11.43;99.84;98011.13;8390558;28;20049;-60
2023/03/14 06:42:35;;;;;;;4.32;0.20;;;;;;;11.54;99.18;98018.66;8383210;28;20419;-60
2023/03/14 06:46:36;;;;;;;1.42;0.10;;;;;;;11.56;100.00;98016.53;8363483;28;20052;-55
2023/03/14 06:50:37;;;;;;;0.10;0.10;;;;;;;11.60;100.00;98025.94;8357758;28;20052;-55
2023/03/14 06:54:41;;;;;;;0.03;0.03;;;;;;;11.66;100.00;98027.00;8357337;28;20067;-55
2023/03/14 06:58:42;;;;;;;0.10;0.10;;;;;;;11.75;100.00;98021.16;8390460;28;20063;-55
2023/03/14 07:02:44;;;;;;;2.50;0.70;;;;;;;11.81;100.00;98025.72;8379324;28;20191;-55
2023/03/14 07:07:05;;;;;;;8.30;1.60;;;;;;;11.93;100.00;98027.81;8393261;28;20563;-55
2023/03/14 07:11:10;;;;;;;6.63;1.17;;;;;;;12.06;99.66;98030.50;8390309;28;20032;-55
2023/03/14 07:15:11;;;;;;;5.68;0.90;;;;;;;12.33;98.60;98037.53;8387655;28;20298;-55
2023/03/14 07:19:12;;;;;;;0.65;0.20;;;;;;;12.77;96.76;98046.56;8374473;28;20032;-55
2023/03/14 07:23:12;;;;;;;0.40;0.20;;;;;;;13.05;94.68;98043.56;8380134;28;20236;-55
2023/03/14 07:27:20;;;;;;;0.30;0.20;;;;;;;13.21;94.42;98049.28;8383229;28;20044;-55
2023/03/14 07:31:23;;;;;;;0.20;0.20;;;;;;;13.24;93.73;98054.28;8371043;28;20450;-54
2023/03/14 07:35:24;;;;;;;0.28;0.10;;;;;;;13.20;93.65;98060.34;8377270;28;20040;-55
2023/03/14 07:39:24;;;;;;;0.30;0.10;;;;;;;13.18;93.72;98063.28;8365430;28;20037;-56
2023/03/14 07:43:34;;;;;;;2.00;0.10;;;;;;;13.14;94.16;98069.34;8380587;28;20040;-55
2023/03/14 07:47:35;;;;;;;0.15;0.10;;;;;;;13.12;93.70;98068.75;8386884;28;20033;-55
2023/03/14 07:51:35;;;;;;;0.30;0.10;;;;;;;13.07;93.19;98082.13;8380526;28;20048;-55
2023/03/14 07:55:36;;;;;;;0.22;0.10;;;;;;;13.05;93.38;98081.53;8384650;28;20059;-60
2023/03/14 07:59:36;;;;;;;0.20;0.17;;;;;;;12.99;95.13;98088.63;8374803;28;20056;-60
2023/03/14 08:03:37;;;;;;;0.10;0.10;;;;;;;13.04;94.40;98077.97;8381811;28;20044;-60
2023/03/14 08:07:38;;;;;;;1.38;0.10;;;;;;;13.21;92.17;98081.84;8377577;28;20476;-60
2023/03/14 08:11:38;;;;;;;0.20;0.10;;;;;;;13.32;92.63;98091.19;8380177;28;20116;-54
2023/03/14 08:15:39;;;;;;;0.00;0.00;;;;;;;13.31;93.13;98100.38;8381623;28;20402;-54
2023/03/14 08:19:41;;;;;;;0.10;0.10;;;;;;;13.29;92.81;98089.75;8370746;28;20044;-53
2023/03/14 08:23:42;;;;;;;0.55;0.10;;;;;;;13.25;92.14;98098.53;8364091;28;20490;-54
2023/03/14 08:27:43;;;;;;;2.17;0.17;;;;;;;13.36;91.89;98108.72;8362723;28;20375;-53
2023/03/14 08:31:44;;;;;;;0.17;0.10;;;;;;;13.42;91.64;98097.00;8371802;28;20043;-54
2023/03/14 08:35:44;;;;;;;1.33;0.10;;;;;;;13.39;90.99;98108.28;8402643;28;20036;-52
2023/03/14 08:39:45;;;;;;;0.38;0.20;;;;;;;13.28;93.61;98117.94;8370323;28;20037;-54
2023/03/14 08:43:45;;;;;;;1.55;0.30;;;;;;;12.96;98.70;98112.63;8363353;28;20040;-54
2023/03/14 08:47:46;;;;;;;1.88;0.22;;;;;;;12.73;100.00;98117.69;8368582;28;20048;-54
2023/03/14 08:51:46;;;;;;;2.00;0.30;;;;;;;12.68;100.00;98131.88;8363180;28;20462;-54
2023/03/14 08:55:47;;;;;;;2.53;1.10;;;;;;;12.70;100.00;98134.38;8393110;28;20396;-54
2023/03/14 08:59:47;;;;;;;6.70;3.30;;;;;;;12.62;100.00;98146.28;8361153;28;20441;-55
2023/03/14 09:03:48;;;;;;;6.70;3.13;;;;;;;12.48;100.00;98151.94;8376748;28;20063;-54
2023/03/14 09:07:49;;;;;;;8.50;4.20;;;;;;;12.49;100.00;98159.00;8354338;28;20116;-54
2023/03/14 09:11:50;;;;;;;2.20;0.60;;;;;;;12.45;100.00;98157.75;8373156;28;20036;-54
2023/03/14 09:15:52;;;;;;;1.63;0.50;;;;;;;12.40;100.00;98163.81;8385591;28;20033;-54
2023/03/14 09:19:52;;;;;;;3.28;0.70;;;;;;;12.25;100.00;98181.31;8383699;28;20434;-55
2023/03/14 09:23:53;;;;;;;3.05;0.70;;;;;;;11.98;100.00;98204.00;8391973;28;20060;-54
2023/03/14 09:27:53;;;;;;;1.48;0.60;;;;;;;11.23;100.00;98242.03;8391955;28;20486;-54
2023/03/14 09:31:54;;;;;;;3.17;0.70;;;;;;;10.53;100.00;98292.66;8392287;28;20037;-54
2023/03/14 09:35:58;;;;;;;1.08;0.50;;;;;;;10.23;100.00;98313.56;8391289;28;20043;-54
2023/03/14 09:39:58;;;;;;;2.00;0.75;;;;;;;10.06;100.00;98328.28;8391786;28;20044;-53
2023/03/14 09:44:17;;;;;;;2.90;0.60;;;;;;;9.90;100.00;98350.13;8384198;28;20041;-53
2023/03/14 09:48:24;;;;;;;2.58;0.47;;;;;;;9.90;100.00;98363.63;8360459;28;20348;-50
2023/03/14 09:52:30;;;;;;;1.15;0.55;;;;;;;9.74;100.00;98398.91;8389772;28;20037;-54
2023/03/14 09:56:33;;;;;;;1.52;1.00;;;;;;;9.65;100.00;98408.13;8373856;28;20037;-54
2023/03/14 10:00:34;;;;;;;1.48;1.33;;;;;;;9.57;100.00;98425.22;8370853;28;20353;-52
2023/03/14 10:04:35;;;;;;;1.58;1.42;;;;;;;9.30;100.00;98436.63;8390120;28;20036;-53
2023/03/14 10:08:40;;;;;;;2.50;2.00;;;;;;;9.34;100.00;98446.03;8389747;28;20107;-53
2023/03/14 10:12:41;;;;;;;2.80;1.88;;;;;;;9.39;100.00;98456.25;8378788;28;20040;-53
2023/03/14 10:16:44;;;;;;;2.35;1.92;;;;;;;9.29;100.00;98483.50;8388807;28;20032;-53
2023/03/14 10:20:47;;;;;;;2.10;1.63;;;;;;;9.18;100.00;98493.88;8388566;28;20043;-53
2023/03/14 10:24:54;;;;;;;3.53;1.48;;;;;;;9.27;100.00;98511.66;8386953;28;20060;-53
2023/03/14 10:29:15;;;;;;;4.57;0.80;;;;;;;9.45;100.00;98522.94;8378028;28;20025;-53
2023/03/14 10:33:22;;;;;;;2.10;0.50;;;;;;;9.49;100.00;98525.09;8373127;28;20244;-53
2023/03/14 10:37:26;;;;;;;1.55;0.55;;;;;;;9.60;100.00;98553.50;8371547;28;20097;-53
2023/03/14 10:41:30;;;;;;;3.05;0.80;;;;;;;9.71;100.00;98551.22;8366553;28;20047;-53
2023/03/14 10:45:38;;;;;;;3.38;0.60;;;;;;;9.72;100.00;98570.91;8376722;28;20043;-51
2023/03/14 10:49:38;;;;;;;2.40;1.00;;;;;;;9.68;100.00;98589.34;8389986;28;20036;-52
2023/03/14 10:57:56;;;;;;;3.63;0.60;;;;;;;10.04;100.00;98600.31;8316635;28;20389;-50
2023/03/14 11:02:10;;;;;;;1.05;0.45;;;;;;;10.58;100.00;98619.84;8296459;28;20030;-52
2023/03/14 11:06:35;;;;;;;1.08;0.60;;;;;;;11.40;97.55;98627.47;8282646;28;20085;-52
2023/03/14 11:10:42;;;;;;;1.30;0.60;;;;;;;13.18;90.58;98626.78;8281101;28;20045;-53
2023/03/14 11:14:51;;;;;;;1.85;0.43;;;;;;;13.50;84.38;98626.03;8277743;28;20057;-52
2023/03/14 11:23:42;;;;;;;6.07;0.82;;;;;;;11.46;90.57;98660.03;8315820;28;20413;-53
2023/03/14 11:28:07;;;;;;;3.55;1.20;;;;;;;11.09;91.54;98659.38;8313378;28;20281;-53
2023/03/14 11:32:17;;;;;;;2.03;1.13;;;;;;;11.26;90.83;98690.59;8313502;28;20042;-52
2023/03/14 11:36:48;;;;;;;2.38;0.98;;;;;;;11.26;88.81;98696.00;8307862;28;20461;-52
2023/03/14 11:40:50;;;;;;;3.35;1.20;;;;;;;10.87;90.36;98709.84;8313990;28;20041;-53
2023/03/14 11:44:52;;;;;;;1.77;0.50;;;;;;;9.78;94.40;98777.94;8305712;28;20124;-53
2023/03/14 11:49:24;;;;;;;0.70;0.47;;;;;;;8.20;100.00;98771.84;8300597;28;20460;-52
2023/03/14 11:53:50;;;;;;;0.85;0.50;;;;;;;8.10;100.00;98795.41;8299965;28;20407;-52
2023/03/14 11:57:53;;;;;;;1.67;0.60;;;;;;;8.18;100.00;98799.94;8298044;28;20053;-52
2023/03/14 12:01:58;;;;;;;2.85;0.60;;;;;;;8.25;100.00;98819.81;8292860;28;20594;-52
2023/03/14 12:10:17;;;;;;;5.47;0.98;;;;;;;8.54;100.00;98847.09;8309662;28;20387;-54
2023/03/14 12:14:35;;;;;;;3.92;1.00;;;;;;;8.68;100.00;98865.25;8306066;28;20543;-53
2023/03/14 12:18:42;;;;;;;4.75;1.10;;;;;;;8.82;100.00;98875.38;8295837;28;20037;-50
2023/03/14 12:22:48;;;;;;;5.20;1.40;;;;;;;9.00;100.00;98879.53;8313655;28;20088;-52
2023/03/14 12:26:55;;;;;;;7.82;1.10;;;;;;;9.08;100.00;98893.03;8303001;28;20046;-54
2023/03/14 12:30:55;;;;;;;4.40;0.80;;;;;;;9.01;100.00;98907.34;8298283;28;20270;-52
2023/03/14 12:34:56;;;;;;;8.82;1.58;;;;;;;9.02;100.00;98925.19;8314150;28;20064;-51
2023/03/14 12:39:10;;;;;;;4.53;0.88;;;;;;;9.01;100.00;98929.75;8314881;28;20091;-52
2023/03/14 12:43:24;;;;;;;;;;;;;;;8.89;100.00;98935.66;8314569;28;20034;-57
2023/03/14 12:51:42;;;;;;;4.20;1.40;;;;;;;8.86;100.00;98968.31;8338271;27;20942;-59
2023/03/14 12:55:50;;;;;;;7.43;2.33;;;;;;;8.90;99.54;98975.91;8341478;28;20048;-59
2023/03/14 12:59:56;;;;;;;4.88;1.50;;;;;;;9.08;99.90;98992.75;8310956;28;20526;-53
2023/03/14 13:04:02;;;;;;;7.30;1.02;;;;;;;9.44;97.30;98996.78;8346683;28;20546;-53
2023/03/14 13:08:06;;;;;;;6.68;1.45;;;;;;;9.55;89.25;99004.50;8347365;28;20121;-54
2023/03/14 13:12:13;;;;;;;4.30;1.13;;;;;;;9.32;90.47;99024.25;8346750;28;20049;-54
2023/03/14 13:16:18;;;;;;;7.32;0.70;;;;;;;9.21;90.29;99038.91;8330073;28;20132;-53
2023/03/14 13:20:44;;;;;;;6.70;1.20;;;;;;;9.07;91.36;99047.69;8328921;28;20423;-52
2023/03/14 13:24:44;;;;;;;6.90;1.42;;;;;;;9.02;92.01;99059.94;8337005;28;20049;-52
2023/03/14 13:28:44;;;;;;;7.15;0.85;;;;;;;9.23;91.53;99068.41;8328763;28;20136;-54
2023/03/14 13:32:47;;;;;;;8.20;1.20;;;;;;;9.57;89.96;99072.63;8341736;28;20139;-54
2023/03/14 13:36:51;;;;;;;8.75;1.42;;;;;;;9.68;88.66;99074.13;8303801;28;20049;-55
2023/03/14 13:40:59;;;;;;;8.85;1.13;;;;;;;9.72;90.36;99084.41;8328060;28;20041;-56
2023/03/14 13:44:59;;;;;;;10.90;1.35;;;;;;;8.80;88.17;99152.19;8315938;28;20563;-55
2023/03/14 13:49:06;;;;;;;15.65;2.08;;;;;;;7.32;99.88;99173.00;8344394;28;20438;-53
2023/03/14 13:53:11;;;;;;;14.90;2.00;;;;;;;7.09;100.00;99179.84;8342316;28;20049;-54
2023/03/14 13:57:11;;;;;;;19.30;2.20;;;;;;;7.06;100.00;99174.78;8302175;28;20125;-54
2023/03/14 14:01:34;;;;;;;11.20;1.50;;;;;;;7.18;100.00;99184.31;8310949;28;20046;-54
2023/03/14 14:05:37;;;;;;;14.00;2.28;;;;;;;7.36;100.00;99200.44;8310200;28;20037;-54
2023/03/14 14:09:43;;;;;;;11.90;2.08;;;;;;;7.45;100.00;99200.38;8324001;28;20396;-54
2023/03/14 14:13:44;;;;;;;20.13;2.63;;;;;;;7.69;100.00;99214.03;8323132;28;20124;-54
2023/03/14 14:17:51;;;;;;;15.38;1.65;;;;;;;7.90;100.00;99225.31;8309770;28;20403;-55
2023/03/14 14:21:52;;;;;;;20.02;3.15;;;;;;;7.92;100.00;99236.78;8297120;28;20056;-55
2023/03/14 14:25:53;;;;;;;15.93;2.33;;;;;;;7.89;100.00;99247.00;8312999;28;20045;-56
2023/03/14 14:29:59;;;;;;;19.33;2.70;;;;;;;7.99;100.00;99256.69;8292437;28;20095;-55
2023/03/14 14:34:02;;;;;;;11.25;1.73;;;;;;;8.07;100.00;99267.53;8272578;28;20053;-55
2023/03/14 14:38:12;;;;;;;13.38;1.83;;;;;;;8.02;100.00;99275.22;8302085;28;20053;-55
2023/03/14 14:42:16;;;;;;;21.02;2.47;;;;;;;7.99;100.00;99285.44;8286797;28;20049;-55
2023/03/14 14:46:18;;;;;;;18.88;2.33;;;;;;;7.92;100.00;99306.75;8298307;28;20253;-60
2023/03/14 14:50:28;;;;;;;9.25;2.10;;;;;;;7.97;100.00;99309.78;8322276;28;20600;-53
2023/03/14 14:54:49;;;;;;;16.15;1.90;;;;;;;8.13;100.00;99319.03;8299681;28;20400;-53
2023/03/14 14:58:50;;;;;;;13.75;2.60;;;;;;;8.22;100.00;99328.88;8300038;28;20042;-54
2023/03/14 15:02:53;;;;;;;24.48;2.28;;;;;;;8.27;100.00;99337.38;8318246;28;20043;-52
2023/03/14 15:06:54;;;;;;;17.23;2.63;;;;;;;8.33;100.00;99345.69;8305206;28;20053;-53
2023/03/14 15:10:56;;;;;;;19.13;2.15;;;;;;;8.38;100.00;99351.44;8317464;28;20280;-53
2023/03/14 15:14:57;;;;;;;28.38;6.00;;;;;;;8.44;99.51;99361.59;8305960;28;20134;-53
2023/03/14 15:19:01;;;;;;;20.15;3.40;;;;;;;8.46;98.94;99374.91;8310377;28;20499;-52
2023/03/14 15:23:02;;;;;;;;;;;;;;;8.55;98.53;99382.03;8306940;28;20064;-54
2023/03/14 15:27:03;;;;;;;20.60;3.90;;;;;;;8.48;96.36;99394.44;8313496;28;20244;-53
2023/03/14 15:31:03;;;;;;;13.82;2.53;;;;;;;8.43;95.48;99396.75;8300771;28;20042;-52
2023/03/14 15:35:05;;;;;;;24.35;3.33;;;;;;;8.46;96.25;99401.81;8317622;28;20060;-53
2023/03/14 15:39:06;;;;;;;19.23;2.83;;;;;;;8.47;97.31;99408.88;8303866;28;20040;-53
2023/03/14 15:43:07;;;;;;;16.50;2.60;;;;;;;8.43;96.87;99424.53;8318709;28;20044;-54
2023/03/14 15:47:10;;;;;;;19.10;3.72;;;;;;;8.38;95.46;99421.44;8317682;28;20051;-53
2023/03/14 15:51:10;;;;;;;20.05;2.83;;;;;;;8.44;95.31;99436.13;8318534;28;20033;-53
2023/03/14 15:55:11;;;;;;;28.17;3.13;;;;;;;8.41;93.99;99441.81;8311996;28;20048;-54
2023/03/14 15:59:12;;;;;;;18.55;2.45;;;;;;;8.40;93.31;99448.22;8284155;28;20095;-52
2023/03/14 16:03:13;;;;;;;18.08;2.95;;;;;;;8.41;92.62;99456.16;8318357;28;20389;-52
2023/03/14 16:07:13;;;;;;;24.52;2.78;;;;;;;8.43;92.28;99466.75;8306798;28;20044;-53
2023/03/14 16:11:14;;;;;;;19.13;3.35;;;;;;;8.44;92.14;99468.44;8276111;28;20492;-54
2023/03/14 16:15:15;;;;;;;20.80;2.95;;;;;;;8.35;90.14;99474.78;8315697;28;20041;-53
2023/03/14 16:19:15;;;;;;;18.33;3.00;;;;;;;8.38;90.16;99494.16;8302540;28;20109;-53
2023/03/14 16:23:17;;;;;;;15.13;2.25;;;;;;;8.36;90.94;99498.00;8283567;28;20243;-52
2023/03/14 16:27:17;;;;;;;18.02;2.47;;;;;;;8.30;90.29;99504.00;8293981;28;20073;-55
2023/03/14 16:31:20;;;;;;;17.75;3.50;;;;;;;8.30;89.17;99507.53;8290387;28;20073;-54
2023/03/14 16:35:20;;;;;;;18.88;2.60;;;;;;;8.31;85.95;99527.22;8296879;28;20100;-54
2023/03/14 16:39:20;;;;;;;19.42;2.63;;;;;;;8.27;84.05;99528.53;8280168;28;20128;-55
2023/03/14 16:43:21;;;;;;;19.35;2.40;;;;;;;8.25;83.26;99544.81;8307680;28;20077;-54
2023/03/14 16:47:21;;;;;;;17.50;2.30;;;;;;;8.25;82.17;99547.53;8289500;28;20034;-54
2023/03/14 16:51:22;;;;;;;15.75;2.90;;;;;;;8.17;88.29;99560.00;8278756;28;20484;-53
2023/03/14 16:55:23;;;;;;;21.88;3.05;;;;;;;8.04;92.78;99576.47;8296570;28;20049;-53
2023/03/14 16:59:24;;;;;;;20.77;3.00;;;;;;;7.99;89.71;99582.31;8276271;28;20116;-53
2023/03/14 17:03:26;;;;;;;20.25;2.75;;;;;;;8.09;85.39;99588.50;8263660;28;20045;-52
2023/03/14 17:07:26;;;;;;;17.30;4.78;;;;;;;8.17;80.57;99605.78;8285376;28;20042;-53
2023/03/14 17:11:27;;;;;;;15.13;3.05;;;;;;;8.22;76.43;99615.13;8288163;28;20046;-53
2023/03/14 17:15:27;;;;;;;16.25;3.08;;;;;;;8.21;75.32;99629.56;8313221;28;20144;-53
2023/03/14 17:19:28;;;;;;;15.07;2.90;;;;;;;8.19;72.84;99633.38;8307315;28;20038;-53
2023/03/14 17:23:30;;;;;;;17.02;2.20;;;;;;;8.04;73.43;99660.78;8299639;28;20817;-59
2023/03/14 17:27:31;;;;;;;15.98;1.88;;;;;;;8.08;72.60;99662.16;8312547;28;20183;-60
2023/03/14 17:31:32;;;;;;;12.15;1.77;;;;;;;8.06;70.29;99663.31;8277240;28;20042;-60
2023/03/14 17:35:32;;;;;;;6.90;1.20;;;;;;;8.00;70.36;99686.25;8267195;28;20767;-59
2023/03/14 17:39:33;;;;;;;9.82;1.67;;;;;;;7.98;71.81;99707.09;8282864;28;20394;-59
2023/03/14 17:43:33;;;;;;;13.82;1.77;;;;;;;7.88;72.61;99713.50;8305695;28;20056;-60
2023/03/14 17:47:33;;;;;;;16.40;2.22;;;;;;;7.85;74.03;99725.41;8320959;28;20605;-59
2023/03/14 17:51:34;;;;;;;11.30;2.55;;;;;;;7.74;74.59;99738.97;8323322;28;20128;-59
2023/03/14 17:55:34;;;;;;;14.63;1.77;;;;;;;7.67;74.76;99748.63;8288674;28;20373;-59
2023/03/14 17:59:35;;;;;;;9.77;1.50;;;;;;;7.60;70.02;99758.22;8284940;28;20052;-59
2023/03/14 18:03:35;;;;;;;10.85;1.80;;;;;;;7.55;70.57;99773.94;8285957;28;20072;-59
2023/03/14 18:07:37;;;;;;;10.82;1.20;;;;;;;7.40;70.82;99777.16;8286013;28;20048;-59
2023/03/14 18:11:37;;;;;;;13.80;1.80;;;;;;;7.36;71.45;99792.75;8302341;28;20045;-53
2023/03/14 18:15:37;;;;;;;13.10;2.40;;;;;;;7.35;70.40;99801.78;8302834;28;20128;-51
2023/03/14 18:19:39;;;;;;;13.68;1.92;;;;;;;7.26;71.31;99807.97;8291058;28;20037;-58
2023/03/14 18:23:40;;;;;;;10.75;1.60;;;;;;;7.25;71.95;99822.41;8284327;28;20078;-59
2023/03/14 18:27:41;;;;;;;10.27;1.85;;;;;;;7.23;71.12;99840.50;8288663;28;20087;-59
2023/03/14 18:31:43;;;;;;;4.13;1.33;;;;;;;7.12;73.01;99856.75;8319381;28;20041;-60
2023/03/14 18:35:44;;;;;;;9.30;2.08;;;;;;;6.96;74.08;99859.09;8284212;28;20049;-60
2023/03/14 18:39:45;;;;;;;6.93;1.63;;;;;;;6.97;71.42;99876.91;8290934;28;20046;-60
2023/03/14 18:43:45;;;;;;;10.38;2.53;;;;;;;7.08;69.12;99884.03;8292205;28;20094;-60
2023/03/14 18:47:45;;;;;;;14.70;2.10;;;;;;;7.00;69.60;99882.00;8310705;28;20399;-59
2023/03/14 18:51:46;;;;;;;17.38;2.22;;;;;;;6.96;68.91;99890.47;8302743;28;20137;-60
2023/03/14 18:55:47;;;;;;;21.60;2.10;;;;;;;6.92;68.90;99906.00;8299826;28;20042;-54
2023/03/14 18:59:47;;;;;;;7.68;1.42;;;;;;;6.91;68.39;99909.66;8311608;28;20499;-56
2023/03/14 19:03:48;;;;;;;16.85;1.90;;;;;;;6.75;69.51;99911.13;8323436;28;20522;-54
2023/03/14 19:07:48;;;;;;;9.85;1.90;;;;;;;6.78;68.93;99929.66;8323899;28;20083;-54
2023/03/14 19:11:50;;;;;;;10.88;1.38;;;;;;;6.75;68.18;99929.91;8324810;28;20037;-52
2023/03/14 19:15:50;;;;;;;7.30;1.73;;;;;;;6.73;68.68;99935.44;8324467;28;20042;-53
2023/03/14 19:19:52;;;;;;;9.70;1.38;;;;;;;6.72;68.49;99936.41;8314177;28;20068;-54
2023/03/14 19:23:53;;;;;;;10.70;1.88;;;;;;;6.52;71.59;99949.84;8308902;28;20534;-54